Time;durP1;ratioP1;P1;durP2;ratioP2;P2;SDS_P1;SDS_P2;PMS_P1;PMS_P2;Temp;Humidity;BMP_temperature;BMP_pressure;BME280_temperature;BME280_humidity;BME280_pressure;Samples;Min_cycle;Max_cycle;Signal;HPM_P1;HPM_P2
2024/01/29 00:01:15;;;;;;;17.17;7.80;;;;;;;2.99;73.22;101402.28;6180600;23;20318;-81
2024/01/29 00:04:00;;;;;;;17.05;7.18;;;;;;;2.91;73.17;101394.19;6201572;23;20314;-80
2024/01/29 00:06:46;;;;;;;18.83;8.40;;;;;;;2.98;73.11;101400.63;6180831;23;20397;-81
2024/01/29 00:09:31;;;;;;;19.75;8.23;;;;;;;3.01;72.55;101400.34;6159681;23;20027;-83
2024/01/29 00:12:17;;;;;;;18.38;7.47;;;;;;;3.00;72.45;101403.94;6159933;23;20425;-82
2024/01/29 00:15:03;;;;;;;18.80;7.38;;;;;;;2.95;73.12;101404.31;6181431;23;20028;-81
2024/01/29 00:17:48;;;;;;;12.90;5.90;;;;;;;2.94;72.85;101404.44;6206630;23;20434;-82
2024/01/29 00:20:34;;;;;;;14.75;7.60;;;;;;;2.94;73.04;101405.25;6175086;23;20024;-80
2024/01/29 00:23:19;;;;;;;9.65;4.70;;;;;;;2.88;73.03;101400.50;6224534;23;20465;-82
2024/01/29 00:26:04;;;;;;;24.92;7.78;;;;;;;2.96;72.51;101413.03;6196915;23;20067;-82
2024/01/29 00:28:50;;;;;;;20.80;7.30;;;;;;;2.87;72.96;101392.78;6186280;23;20031;-80
2024/01/29 00:31:35;;;;;;;11.68;5.80;;;;;;;2.97;72.56;101412.88;6167694;23;20024;-81
2024/01/29 00:34:22;;;;;;;19.40;8.63;;;;;;;2.93;72.61;101414.09;6210686;23;20024;-81
2024/01/29 00:37:06;;;;;;;23.77;9.82;;;;;;;2.90;73.13;101414.34;6209097;23;20445;-80
2024/01/29 00:39:52;;;;;;;23.25;8.77;;;;;;;2.88;73.27;101412.81;6187433;23;20387;-80
2024/01/29 00:42:37;;;;;;;29.10;10.77;;;;;;;2.87;73.37;101419.88;6209459;23;20028;-82
2024/01/29 00:45:22;;;;;;;31.38;12.05;;;;;;;2.78;72.67;101410.94;6210178;23;20488;-81
2024/01/29 00:48:08;;;;;;;35.60;14.32;;;;;;;2.78;73.32;101399.59;6164071;23;20031;-83
2024/01/29 00:50:55;;;;;;;33.78;12.95;;;;;;;2.86;73.35;101417.38;6204591;23;20039;-83
2024/01/29 00:53:40;;;;;;;27.73;11.98;;;;;;;2.85;73.77;101420.94;6184880;23;20043;-80
2024/01/29 00:56:26;;;;;;;41.50;16.00;;;;;;;2.79;74.16;101414.44;6182372;23;20031;-81
2024/01/29 00:59:11;;;;;;;24.10;9.80;;;;;;;2.76;74.16;101417.31;6182079;23;20035;-83
2024/01/29 01:01:57;;;;;;;22.92;10.27;;;;;;;2.74;74.23;101422.66;6181869;23;20043;-81
2024/01/29 01:04:42;;;;;;;27.55;12.02;;;;;;;2.74;74.38;101427.91;6181902;23;20346;-82
2024/01/29 01:07:28;;;;;;;22.42;11.65;;;;;;;2.71;74.03;101422.91;6181967;23;20438;-83
2024/01/29 01:10:13;;;;;;;26.25;12.25;;;;;;;2.73;74.75;101420.19;6202765;23;20028;-81
2024/01/29 01:12:59;;;;;;;30.40;15.25;;;;;;;2.72;74.74;101421.13;6181473;23;20043;-81
2024/01/29 01:15:45;;;;;;;42.67;17.50;;;;;;;2.71;74.36;101420.28;6202750;23;20322;-81
2024/01/29 01:18:30;;;;;;;53.38;18.00;;;;;;;2.73;74.91;101423.63;6181717;23;20044;-80
2024/01/29 01:21:16;;;;;;;31.75;12.65;;;;;;;2.72;75.44;101427.19;6161226;23;20322;-81
2024/01/29 01:24:01;;;;;;;33.50;14.63;;;;;;;2.67;74.63;101421.50;6181744;23;20044;-82
2024/01/29 01:26:47;;;;;;;30.67;13.80;;;;;;;2.59;75.39;101400.28;6181351;23;20445;-80
2024/01/29 01:29:32;;;;;;;30.17;14.23;;;;;;;2.54;75.13;101392.78;6161351;23;20314;-81
2024/01/29 01:32:18;;;;;;;60.90;22.20;;;;;;;2.57;75.34;101403.97;6181757;23;20433;-82
2024/01/29 01:35:03;;;;;;;61.30;21.33;;;;;;;2.63;75.04;101412.19;6182980;23;20055;-81
2024/01/29 01:37:48;;;;;;;39.00;16.58;;;;;;;2.59;75.90;101410.78;6165988;23;20028;-83
2024/01/29 01:40:34;;;;;;;33.05;13.68;;;;;;;2.60;74.54;101407.22;6197783;23;20043;-81
2024/01/29 01:43:22;;;;;;;29.60;12.88;;;;;;;2.59;74.78;101400.28;6202843;23;20043;-82
2024/01/29 01:46:25;;;;;;;26.52;12.18;;;;;;;2.60;76.08;101416.84;6215989;23;20028;-82
2024/01/29 01:49:11;;;;;;;32.60;14.85;;;;;;;2.55;76.19;101420.69;6182763;23;20031;-83
2024/01/29 01:51:56;;;;;;;36.33;14.93;;;;;;;2.36;76.11;101394.28;6162403;23;20051;-82
2024/01/29 01:54:42;;;;;;;37.70;14.52;;;;;;;2.49;75.94;101410.69;6181218;23;20043;-82
2024/01/29 01:57:28;;;;;;;42.83;15.40;;;;;;;2.48;76.95;101410.84;6181860;23;20044;-82
2024/01/29 02:00:14;;;;;;;30.17;13.63;;;;;;;2.46;76.37;101397.00;6202531;23;20314;-81
2024/01/29 02:02:59;;;;;;;34.97;12.38;;;;;;;2.47;75.60;101404.72;6202495;23;20464;-83
2024/01/29 02:05:45;;;;;;;30.83;12.40;;;;;;;2.40;76.07;101400.94;6181271;23;20047;-83
2024/01/29 02:08:31;;;;;;;36.28;13.07;;;;;;;2.30;75.79;101390.34;6181154;23;20315;-81
2024/01/29 02:11:16;;;;;;;32.63;10.77;;;;;;;2.31;76.52;101401.66;6181477;23;20031;-81
2024/01/29 02:14:02;;;;;;;24.67;10.43;;;;;;;2.24;75.93;101392.63;6160314;23;20043;-82
2024/01/29 02:16:47;;;;;;;26.10;10.77;;;;;;;2.19;75.84;101385.09;6181267;23;20429;-82
2024/01/29 02:19:32;;;;;;;18.92;9.05;;;;;;;2.19;76.13;101400.03;6180983;23;20027;-81
2024/01/29 02:22:18;;;;;;;19.63;9.35;;;;;;;2.22;76.79;101405.03;6181525;23;20067;-84
2024/01/29 02:25:03;;;;;;;24.48;9.90;;;;;;;2.17;77.10;101401.94;6202148;23;20028;-81
2024/01/29 02:27:49;;;;;;;31.88;11.38;;;;;;;2.02;76.86;101396.94;6181223;23;20441;-83
2024/01/29 02:30:34;;;;;;;26.33;10.70;;;;;;;2.02;76.36;101393.50;6181415;23;20027;-81
2024/01/29 02:33:20;;;;;;;27.92;11.27;;;;;;;2.00;76.81;101404.09;6202769;23;20441;-83
2024/01/29 02:36:06;;;;;;;31.42;10.60;;;;;;;1.85;77.25;101395.66;6181339;23;20023;-82
2024/01/29 02:38:51;;;;;;;26.00;9.25;;;;;;;1.88;76.99;101389.34;6181615;23;20310;-82
2024/01/29 02:41:37;;;;;;;24.52;11.20;;;;;;;1.88;77.22;101396.34;6202318;23;20480;-83
2024/01/29 02:44:22;;;;;;;23.92;11.48;;;;;;;1.89;76.96;101400.66;6160368;23;20028;-82
2024/01/29 02:47:08;;;;;;;21.42;9.63;;;;;;;1.85;77.37;101387.81;6182265;23;20035;-82
2024/01/29 02:49:53;;;;;;;15.25;8.30;;;;;;;1.81;77.37;101390.75;6203283;23;20027;-81
2024/01/29 02:52:39;;;;;;;23.73;8.45;;;;;;;1.76;77.57;101385.91;6161135;23;20028;-81
2024/01/29 02:55:24;;;;;;;13.82;7.20;;;;;;;1.87;77.56;101392.09;6162031;23;20065;-82
2024/01/29 02:58:10;;;;;;;10.95;6.88;;;;;;;1.82;77.92;101387.22;6206678;23;20311;-83
2024/01/29 03:00:56;;;;;;;22.17;7.72;;;;;;;1.82;77.24;101401.16;6198702;23;20028;-82
2024/01/29 03:03:41;;;;;;;20.10;8.25;;;;;;;1.79;77.39;101401.38;6201170;23;20028;-81
2024/01/29 03:06:27;;;;;;;17.20;7.75;;;;;;;1.80;77.37;101403.03;6175991;23;20043;-81
2024/01/29 03:09:11;;;;;;;19.92;8.20;;;;;;;1.81;77.73;101402.09;6181251;23;20445;-83
2024/01/29 03:11:57;;;;;;;22.23;8.32;;;;;;;1.65;77.84;101379.81;6180777;23;20032;-82
2024/01/29 03:14:42;;;;;;;19.88;8.55;;;;;;;1.71;77.85;101401.13;6201737;23;20028;-82
2024/01/29 03:17:27;;;;;;;26.10;10.73;;;;;;;1.69;77.83;101403.03;6202060;23;20437;-82
2024/01/29 03:20:13;;;;;;;20.77;8.73;;;;;;;1.65;78.71;101411.25;6202063;23;20315;-82
2024/01/29 03:22:59;;;;;;;20.83;8.57;;;;;;;1.69;78.05;101404.81;6180831;23;20315;-82
2024/01/29 03:25:44;;;;;;;16.60;7.78;;;;;;;1.60;78.66;101395.91;6159723;23;20043;-80
2024/01/29 03:28:30;;;;;;;24.83;8.85;;;;;;;1.81;77.80;101409.94;6201760;23;20319;-82
2024/01/29 03:31:15;;;;;;;22.70;8.50;;;;;;;1.83;77.77;101405.44;6201662;23;20044;-81
2024/01/29 03:34:00;;;;;;;24.92;8.63;;;;;;;1.79;77.24;101396.16;6180938;23;20027;-81
2024/01/29 03:36:46;;;;;;;38.60;12.85;;;;;;;1.91;76.95;101407.44;6180794;23;20027;-82
2024/01/29 03:39:31;;;;;;;72.28;19.88;;;;;;;1.95;76.42;101405.44;6201614;23;20027;-81
2024/01/29 03:42:16;;;;;;;91.72;24.33;;;;;;;1.96;76.42;101407.09;6181121;23;20437;-83
2024/01/29 03:45:03;;;;;;;117.95;29.60;;;;;;;1.97;76.49;101408.75;6202795;23;20032;-80
2024/01/29 03:47:48;;;;;;;58.47;18.83;;;;;;;1.94;76.91;101403.75;6172204;23;20028;-81
2024/01/29 03:50:33;;;;;;;37.55;15.07;;;;;;;1.87;77.44;101403.41;6201880;23;20043;-81
2024/01/29 03:53:19;;;;;;;42.72;15.82;;;;;;;1.79;77.03;101388.28;6180677;23;20441;-81
2024/01/29 03:56:05;;;;;;;35.63;12.23;;;;;;;1.80;77.23;101389.09;6161034;23;20028;-81
2024/01/29 03:58:50;;;;;;;24.00;8.45;;;;;;;1.88;76.43;101396.34;6182722;23;20445;-81
2024/01/29 04:01:35;;;;;;;19.88;8.32;;;;;;;1.85;76.36;101400.09;6182970;23;20027;-81
2024/01/29 04:04:20;;;;;;;8.45;3.97;;;;;;;1.82;75.96;101380.19;6161891;23;20028;-81
2024/01/29 04:07:06;;;;;;;16.05;7.03;;;;;;;1.67;76.29;101372.69;6182197;23;20318;-81
2024/01/29 04:09:51;;;;;;;13.18;6.20;;;;;;;1.74;76.01;101379.09;6182686;23;20031;-80
2024/01/29 04:12:36;;;;;;;13.77;6.95;;;;;;;1.63;76.58;101379.94;6203779;23;20028;-82
2024/01/29 04:15:21;;;;;;;16.40;5.57;;;;;;;1.56;77.26;101389.22;6182513;23;20044;-81
2024/01/29 04:18:06;;;;;;;17.60;6.38;;;;;;;1.39;77.60;101386.09;6187345;23;20315;-81
2024/01/29 04:20:52;;;;;;;18.08;5.90;;;;;;;1.27;78.05;101376.56;6196811;23;20040;-82
2024/01/29 04:23:37;;;;;;;11.60;6.55;;;;;;;1.20;78.54;101385.84;6204103;23;20350;-81
2024/01/29 04:26:23;;;;;;;16.33;6.85;;;;;;;1.13;78.42;101390.72;6196981;23;20475;-81
2024/01/29 04:29:08;;;;;;;16.88;8.00;;;;;;;1.04;79.03;101396.66;6205091;23;20031;-81
2024/01/29 04:31:54;;;;;;;18.65;7.57;;;;;;;0.89;79.44;101380.28;6182532;23;20027;-82
2024/01/29 04:34:39;;;;;;;24.55;7.68;;;;;;;0.87;79.77;101387.41;6203315;23;20440;-82
2024/01/29 04:37:25;;;;;;;22.80;7.68;;;;;;;0.78;79.96;101392.50;6182491;23;20043;-80
2024/01/29 04:40:11;;;;;;;25.13;8.48;;;;;;;1.02;79.84;101405.56;6203447;23;20319;-82
2024/01/29 04:42:56;;;;;;;18.85;8.25;;;;;;;1.01;79.52;101403.91;6203591;23;20043;-82
2024/01/29 04:45:42;;;;;;;30.33;11.80;;;;;;;1.08;79.56;101419.03;6162153;23;20043;-80
2024/01/29 04:48:27;;;;;;;30.40;15.05;;;;;;;1.06;79.38;101430.56;6163049;23;20322;-82
2024/01/29 04:51:12;;;;;;;32.47;14.73;;;;;;;1.06;79.88;101428.75;6161913;23;20039;-82
2024/01/29 04:53:57;;;;;;;36.38;16.15;;;;;;;1.05;79.97;101434.97;6182018;23;20123;-83
2024/01/29 04:56:42;;;;;;;32.25;14.65;;;;;;;0.98;79.82;101415.44;6203525;23;20027;-82
2024/01/29 04:59:28;;;;;;;34.97;15.23;;;;;;;1.03;80.60;101428.16;6182119;23;20047;-81
2024/01/29 05:02:14;;;;;;;33.38;15.43;;;;;;;0.90;80.18;101429.06;6202846;23;20043;-80
2024/01/29 05:04:59;;;;;;;27.40;14.05;;;;;;;0.98;79.74;101444.22;6181992;23;20318;-80
2024/01/29 05:07:44;;;;;;;34.17;13.48;;;;;;;0.97;80.24;101454.81;6181554;23;20028;-82
2024/01/29 05:10:29;;;;;;;28.05;12.95;;;;;;;0.97;80.09;101447.78;6202432;23;20047;-82
2024/01/29 05:13:15;;;;;;;34.17;15.45;;;;;;;0.98;80.53;101462.56;6161649;23;20315;-82
2024/01/29 05:16:00;;;;;;;34.10;15.60;;;;;;;1.02;80.33;101453.53;6181337;23;20027;-81
2024/01/29 05:18:47;;;;;;;28.35;14.20;;;;;;;0.97;80.57;101439.09;6203902;23;20027;-83
2024/01/29 05:21:33;;;;;;;43.92;19.67;;;;;;;0.97;79.86;101439.91;6181616;23;20023;-83
2024/01/29 05:24:18;;;;;;;52.75;22.42;;;;;;;1.10;79.74;101455.59;6160968;23;20035;-82
2024/01/29 05:27:03;;;;;;;51.47;23.25;;;;;;;1.08;79.86;101460.94;6202702;23;20078;-81
2024/01/29 05:29:48;;;;;;;50.35;21.60;;;;;;;1.08;80.09;101452.25;6202839;23;20326;-81
2024/01/29 05:32:33;;;;;;;45.47;21.42;;;;;;;1.04;79.65;101453.41;6181955;23;20027;-81
2024/01/29 05:35:18;;;;;;;48.58;22.48;;;;;;;1.07;80.04;101456.66;6182684;23;20083;-81
2024/01/29 05:38:03;;;;;;;44.75;24.05;;;;;;;1.06;79.58;101459.34;6165116;23;20433;-81
2024/01/29 05:40:49;;;;;;;53.70;23.45;;;;;;;0.97;80.16;101444.31;6213105;23;20036;-81
2024/01/29 05:43:34;;;;;;;32.22;16.23;;;;;;;0.87;80.10;101437.16;6182903;23;20027;-81
2024/01/29 05:46:20;;;;;;;24.05;12.75;;;;;;;0.84;80.34;101445.22;6198200;23;20027;-82
2024/01/29 05:49:06;;;;;;;24.48;12.30;;;;;;;0.74;80.28;101459.94;6203712;23;20028;-82
2024/01/29 05:51:51;;;;;;;38.55;13.70;;;;;;;0.56;80.76;101430.69;6202580;23;20028;-81
2024/01/29 05:54:37;;;;;;;35.13;12.38;;;;;;;0.67;81.45;101469.19;6181714;23;20398;-83
2024/01/29 05:57:22;;;;;;;29.40;12.90;;;;;;;0.70;81.58;101463.72;6181120;23;20028;-83
2024/01/29 06:00:09;;;;;;;28.10;12.50;;;;;;;0.63;81.26;101465.97;6201961;23;20039;-83
2024/01/29 06:02:58;;;;;;;29.35;15.00;;;;;;;0.58;81.82;101470.69;6202479;23;20032;-82
2024/01/29 06:05:43;;;;;;;34.03;18.00;;;;;;;0.50;82.37;101470.38;6160131;23;20323;-83
2024/01/29 06:08:29;;;;;;;41.58;19.17;;;;;;;0.53;82.47;101474.56;6181562;23;20051;-81
2024/01/29 06:11:14;;;;;;;40.35;19.92;;;;;;;0.50;82.76;101477.41;6182063;23;20047;-82
2024/01/29 06:13:59;;;;;;;45.50;19.35;;;;;;;0.46;82.25;101477.63;6207897;23;20318;-82
2024/01/29 06:16:44;;;;;;;44.35;18.42;;;;;;;0.55;82.28;101481.38;6208105;23;20053;-82
2024/01/29 06:19:30;;;;;;;37.30;20.35;;;;;;;0.48;82.38;101468.84;6207759;23;20437;-83
2024/01/29 06:22:16;;;;;;;59.33;26.08;;;;;;;0.54;82.51;101479.69;6187271;23;20340;-83
2024/01/29 06:25:02;;;;;;;56.72;27.77;;;;;;;0.56;83.12;101485.63;6187683;23;20311;-81
2024/01/29 06:27:48;;;;;;;42.42;22.88;;;;;;;0.53;82.59;101492.88;6185915;23;20047;-81
2024/01/29 06:30:33;;;;;;;41.55;22.50;;;;;;;0.53;82.54;101487.66;6185201;23;20336;-83
2024/01/29 06:33:19;;;;;;;64.13;33.05;;;;;;;0.55;81.79;101491.00;6182437;23;20047;-81
2024/01/29 06:36:05;;;;;;;60.60;31.08;;;;;;;0.38;82.39;101459.03;6181029;23;20035;-82
2024/01/29 06:38:50;;;;;;;63.25;29.67;;;;;;;0.54;82.87;101490.16;6180921;23;20429;-82
2024/01/29 06:41:36;;;;;;;55.70;27.60;;;;;;;0.50;82.26;101493.09;6181342;23;20318;-81
2024/01/29 06:44:21;;;;;;;56.45;27.05;;;;;;;0.36;83.24;101496.69;6203562;23;20079;-82
2024/01/29 06:47:07;;;;;;;54.72;26.40;;;;;;;0.41;83.09;101505.91;6160306;23;20323;-81
2024/01/29 06:49:51;;;;;;;73.90;27.67;;;;;;;0.36;83.31;101494.91;6180946;23;20027;-80
2024/01/29 06:52:37;;;;;;;56.80;27.00;;;;;;;0.34;83.46;101493.34;6180871;23;20028;-80
2024/01/29 06:55:23;;;;;;;65.72;28.15;;;;;;;0.26;83.53;101486.06;6182923;23;20318;-80
2024/01/29 06:58:08;;;;;;;51.58;26.67;;;;;;;0.36;83.71;101510.59;6187172;23;20023;-81
2024/01/29 07:00:59;;;;;;;66.07;28.73;;;;;;;0.40;83.24;101498.97;6201485;23;20027;-82
2024/01/29 07:03:44;;;;;;;106.40;47.35;;;;;;;0.49;82.83;101507.13;6197926;23;20024;-80
2024/01/29 07:06:30;;;;;;;159.40;74.50;;;;;;;0.55;82.66;101511.94;6190168;23;20428;-81
2024/01/29 07:09:16;;;;;;;143.57;64.43;;;;;;;0.85;81.99;101503.69;6159892;23;20024;-80
2024/01/29 07:12:01;;;;;;;149.27;67.30;;;;;;;0.86;81.14;101506.16;6180516;23;20021;-83
2024/01/29 07:14:47;;;;;;;138.20;68.82;;;;;;;1.05;81.38;101512.69;6180070;23;20020;-81
2024/01/29 07:17:32;;;;;;;102.47;47.45;;;;;;;1.14;80.47;101525.13;6180294;23;20020;-80
2024/01/29 07:20:18;;;;;;;94.00;48.08;;;;;;;1.01;80.51;101521.72;6201591;23;20318;-82
2024/01/29 07:23:04;;;;;;;82.47;41.13;;;;;;;1.07;80.28;101514.25;6201333;23;20016;-81
2024/01/29 07:25:49;;;;;;;92.00;42.83;;;;;;;1.32;81.08;101520.31;6159776;23;20031;-82
2024/01/29 07:28:35;;;;;;;98.63;44.15;;;;;;;1.48;79.74;101518.22;6180347;23;20318;-82
2024/01/29 07:31:20;;;;;;;106.75;47.20;;;;;;;1.67;78.55;101529.94;6180676;23;20021;-81
2024/01/29 07:34:05;;;;;;;86.30;40.65;;;;;;;1.79;77.83;101522.00;6180539;23;20419;-82
2024/01/29 07:36:50;;;;;;;69.05;35.08;;;;;;;1.81;77.73;101508.75;6180557;23;20020;-80
2024/01/29 07:39:36;;;;;;;80.85;35.15;;;;;;;2.04;77.63;101528.00;6181261;23;20321;-81
2024/01/29 07:42:22;;;;;;;70.32;36.47;;;;;;;2.13;76.20;101529.91;6183238;23;20411;-81
2024/01/29 07:45:07;;;;;;;84.43;38.40;;;;;;;2.17;76.39;101518.22;6181451;23;20414;-80
2024/01/29 07:47:53;;;;;;;85.88;34.75;;;;;;;2.28;76.55;101531.31;6191802;23;20021;-82
2024/01/29 07:50:38;;;;;;;80.07;32.53;;;;;;;2.49;75.26;101536.69;6180525;23;20025;-81
2024/01/29 07:53:24;;;;;;;55.22;25.52;;;;;;;2.67;74.39;101547.53;6180952;23;20441;-81
2024/01/29 07:56:10;;;;;;;68.03;30.10;;;;;;;2.68;74.29;101538.69;6160131;23;20323;-80
2024/01/29 07:58:55;;;;;;;47.47;21.90;;;;;;;2.74;73.30;101545.25;6180568;23;20315;-80
2024/01/29 08:01:44;;;;;;;40.70;20.38;;;;;;;2.75;73.25;101528.53;6201337;23;20039;-80
2024/01/29 08:04:29;;;;;;;37.17;18.95;;;;;;;2.79;72.87;101545.72;6180736;23;20043;-80
2024/01/29 08:07:14;;;;;;;38.63;19.20;;;;;;;2.80;73.97;101539.50;6180505;23;20043;-80
2024/01/29 08:10:01;;;;;;;42.30;19.17;;;;;;;2.93;73.54;101539.34;6201325;23;20453;-80
2024/01/29 08:12:46;;;;;;;39.90;17.20;;;;;;;3.03;73.03;101540.28;6159494;23;20020;-80
2024/01/29 08:15:32;;;;;;;52.08;26.08;;;;;;;2.93;72.09;101521.81;6163607;23;20024;-81
2024/01/29 08:18:17;;;;;;;28.33;16.15;;;;;;;3.45;71.35;101538.56;6207635;23;20433;-81
2024/01/29 08:21:03;;;;;;;41.42;18.52;;;;;;;3.08;71.70;101534.66;6200714;23;20039;-79
2024/01/29 08:23:49;;;;;;;35.35;18.65;;;;;;;3.31;70.96;101533.59;6194992;23;20017;-82
2024/01/29 08:26:34;;;;;;;26.75;13.60;;;;;;;3.27;71.06;101526.13;6208580;23;20319;-82
2024/01/29 08:29:20;;;;;;;33.15;16.05;;;;;;;3.39;71.48;101536.47;6180640;23;20028;-83
2024/01/29 08:32:05;;;;;;;29.45;16.33;;;;;;;3.71;71.65;101536.41;6159860;23;20028;-80
2024/01/29 08:34:50;;;;;;;34.75;15.82;;;;;;;3.85;70.01;101555.44;6159641;23;20320;-81
2024/01/29 08:37:36;;;;;;;35.42;15.02;;;;;;;3.68;70.30;101555.06;6203251;23;20024;-80
2024/01/29 08:40:22;;;;;;;31.25;15.50;;;;;;;3.82;69.22;101551.25;6182009;23;20020;-82
2024/01/29 08:43:08;;;;;;;27.17;12.88;;;;;;;3.69;70.69;101551.47;6204312;23;20433;-81
2024/01/29 08:45:53;;;;;;;28.50;15.18;;;;;;;3.70;69.51;101547.91;6160783;23;20020;-82
2024/01/29 08:48:38;;;;;;;27.50;13.38;;;;;;;3.94;68.93;101562.56;6182070;23;20438;-81
2024/01/29 08:51:23;;;;;;;29.20;13.25;;;;;;;3.69;69.73;101555.91;6181781;23;20075;-81
2024/01/29 08:54:09;;;;;;;9.68;4.82;;;;;;;3.77;69.07;101558.72;6182044;23;20350;-82
2024/01/29 08:56:54;;;;;;;11.07;5.03;;;;;;;3.50;69.44;101556.59;6160837;23;20287;-80
2024/01/29 08:59:41;;;;;;;9.68;5.03;;;;;;;3.55;69.11;101546.53;6181786;23;20032;-80
2024/01/29 09:02:28;;;;;;;7.18;4.57;;;;;;;3.59;68.10;101547.94;6161517;23;20429;-81
2024/01/29 09:05:13;;;;;;;16.05;7.60;;;;;;;3.66;68.60;101553.50;6203088;23;20311;-79
2024/01/29 09:07:59;;;;;;;24.23;9.90;;;;;;;3.86;68.68;101562.41;6203075;23;20442;-81
2024/01/29 09:10:45;;;;;;;19.23;11.32;;;;;;;3.81;69.76;101557.50;6182000;23;20032;-80
2024/01/29 09:13:30;;;;;;;9.70;3.90;;;;;;;3.72;68.23;101550.38;6182034;23;20040;-80
2024/01/29 09:16:15;;;;;;;21.25;8.10;;;;;;;3.98;68.79;101550.84;6202882;23;20027;-81
2024/01/29 09:19:00;;;;;;;16.05;8.13;;;;;;;4.09;69.28;101548.09;6181681;23;20032;-81
2024/01/29 09:21:49;;;;;;;3.08;2.78;;;;;;;3.85;68.32;101548.38;6202535;23;20044;-82
2024/01/29 09:24:34;;;;;;;14.32;8.38;;;;;;;4.02;68.48;101541.72;6181749;23;20032;-82
2024/01/29 09:27:19;;;;;;;11.00;5.80;;;;;;;3.77;68.17;101521.06;6160988;23;20327;-80
2024/01/29 09:30:05;;;;;;;15.43;7.05;;;;;;;3.93;68.34;101529.34;6202269;23;20318;-80
2024/01/29 09:32:50;;;;;;;20.65;11.10;;;;;;;3.81;68.04;101525.09;6204144;23;20449;-82
2024/01/29 09:35:35;;;;;;;26.02;12.45;;;;;;;4.29;68.32;101541.13;6186122;23;20021;-81
2024/01/29 09:38:20;;;;;;;16.10;7.40;;;;;;;4.08;66.73;101524.56;6211521;23;20036;-79
2024/01/29 09:41:06;;;;;;;16.83;8.23;;;;;;;3.93;66.65;101539.84;6181827;23;20043;-81
2024/01/29 09:43:54;;;;;;;9.18;4.40;;;;;;;3.91;67.45;101536.50;6215847;23;20024;-81
2024/01/29 09:46:40;;;;;;;22.40;8.18;;;;;;;4.05;67.93;101541.44;6164892;23;20043;-81
2024/01/29 09:49:26;;;;;;;24.65;9.18;;;;;;;4.26;66.91;101532.66;6180738;23;20043;-83
2024/01/29 09:52:12;;;;;;;10.38;4.47;;;;;;;4.06;66.49;101531.75;6181420;22;20028;-82
2024/01/29 09:54:59;;;;;;;21.13;9.80;;;;;;;4.20;66.80;101522.66;6181671;23;20027;-81
2024/01/29 09:57:44;;;;;;;19.33;8.50;;;;;;;4.72;65.24;101516.31;6181005;23;20027;-81
2024/01/29 10:00:30;;;;;;;21.10;9.10;;;;;;;4.92;64.24;101501.41;6202105;23;20031;-83
2024/01/29 10:03:36;;;;;;;8.85;4.65;;;;;;;4.84;64.69;101511.78;6180958;23;20414;-80
2024/01/29 10:06:21;;;;;;;13.75;6.32;;;;;;;4.65;65.30;101491.50;6202461;23;20321;-81
2024/01/29 10:09:07;;;;;;;17.95;9.10;;;;;;;4.87;65.89;101493.91;6181322;23;20043;-81
2024/01/29 10:11:52;;;;;;;14.43;6.80;;;;;;;5.30;62.42;101503.22;6181148;23;20043;-81
2024/01/29 10:14:38;;;;;;;8.02;4.18;;;;;;;4.60;64.68;101488.44;6181133;23;20027;-81
2024/01/29 10:17:24;;;;;;;19.40;9.05;;;;;;;5.10;63.45;101496.25;6202117;23;20318;-81
2024/01/29 10:20:21;;;;;;;11.73;6.03;;;;;;;4.58;65.48;101499.13;6201741;23;20430;-81
2024/01/29 10:23:06;;;;;;;14.77;5.78;;;;;;;4.44;65.54;101496.84;6201913;23;20047;-79
2024/01/29 10:25:56;;;;;;;12.10;5.68;;;;;;;4.34;66.39;101498.63;6159739;23;20027;-82
2024/01/29 10:28:41;;;;;;;14.85;7.18;;;;;;;4.31;65.74;101483.94;6202038;23;20315;-81
2024/01/29 10:31:26;;;;;;;19.10;8.02;;;;;;;4.54;65.86;101492.44;6201377;23;20047;-81
2024/01/29 10:34:11;;;;;;;21.33;10.07;;;;;;;4.74;65.49;101492.50;6160498;23;20028;-80
2024/01/29 10:36:57;;;;;;;18.83;8.45;;;;;;;4.66;65.37;101500.22;6182133;23;20074;-81
2024/01/29 10:39:43;;;;;;;20.35;9.38;;;;;;;4.75;66.58;101473.09;6181012;23;20024;-80
2024/01/29 10:42:30;;;;;;;22.60;9.27;;;;;;;5.10;64.53;101481.28;6181396;23;20031;-81
2024/01/29 10:45:19;;;;;;;16.40;8.23;;;;;;;4.94;64.76;101459.09;6160423;23;20024;-80
2024/01/29 10:48:10;;;;;;;9.82;4.55;;;;;;;4.69;64.98;101469.19;6181099;23;20027;-80
2024/01/29 10:50:55;;;;;;;4.10;2.88;;;;;;;4.52;64.79;101464.59;6202197;23;20031;-82
2024/01/29 10:53:42;;;;;;;9.73;5.45;;;;;;;4.60;64.23;101475.28;6161333;23;20031;-81
2024/01/29 10:56:28;;;;;;;3.83;2.95;;;;;;;4.63;63.14;101453.94;6208210;23;20031;-82
2024/01/29 10:59:16;;;;;;;10.80;4.13;;;;;;;4.90;63.27;101466.44;6197661;23;20484;-81
2024/01/29 11:02:04;;;;;;;7.43;4.22;;;;;;;4.91;62.24;101465.47;6175530;23;20043;-79
2024/01/29 11:04:49;;;;;;;7.38;4.03;;;;;;;4.73;62.19;101440.75;6190786;23;20027;-80
2024/01/29 11:07:36;;;;;;;3.65;2.28;;;;;;;4.73;61.34;101451.31;6180372;23;20457;-79
2024/01/29 11:10:23;;;;;;;12.07;6.13;;;;;;;5.08;61.51;101443.69;6180830;23;20031;-81
2024/01/29 11:13:08;;;;;;;19.58;7.38;;;;;;;5.22;61.34;101454.78;6200960;23;20318;-81
2024/01/29 11:15:55;;;;;;;6.07;3.38;;;;;;;5.12;62.26;101448.69;6160124;23;20306;-81
2024/01/29 11:18:42;;;;;;;5.78;2.95;;;;;;;5.14;61.26;101441.47;6203651;23;20074;-80
2024/01/29 11:21:27;;;;;;;5.47;3.13;;;;;;;5.21;61.27;101448.69;6180359;23;20441;-83
2024/01/29 11:24:13;;;;;;;12.82;5.50;;;;;;;5.14;61.26;101436.19;6181300;23;20319;-81
2024/01/29 11:27:07;;;;;;;13.43;7.00;;;;;;;5.50;61.27;101434.63;6180033;23;20441;-80
2024/01/29 11:29:52;;;;;;;22.73;8.10;;;;;;;5.68;60.32;101434.72;6180915;23;20047;-80
2024/01/29 11:32:40;;;;;;;9.93;4.80;;;;;;;5.67;59.67;101427.75;6160493;23;20043;-80
2024/01/29 11:35:29;;;;;;;9.98;3.70;;;;;;;5.40;60.42;101431.19;6201757;23;20027;-80
2024/01/29 11:38:20;;;;;;;16.63;7.82;;;;;;;5.62;60.05;101430.84;6201847;23;20028;-80
2024/01/29 11:41:06;;;;;;;20.27;5.35;;;;;;;5.80;58.60;101437.03;6159429;23;20023;-82
2024/01/29 11:43:52;;;;;;;5.55;3.75;;;;;;;5.34;57.86;101422.84;6202244;23;20433;-80
2024/01/29 11:46:37;;;;;;;5.10;2.60;;;;;;;5.28;60.59;101433.97;6159298;23;20310;-80
2024/01/29 11:49:26;;;;;;;10.73;4.55;;;;;;;5.24;60.07;101437.03;6195562;23;20033;-80
2024/01/29 11:52:11;;;;;;;4.05;2.10;;;;;;;5.15;58.79;101425.53;6180483;23;20031;-79
2024/01/29 11:54:57;;;;;;;10.73;4.43;;;;;;;5.33;59.97;101423.00;6201057;23;20027;-79
2024/01/29 11:57:45;;;;;;;9.32;4.20;;;;;;;5.42;60.38;101430.06;6201402;23;20124;-80
2024/01/29 12:00:31;;;;;;;13.90;4.88;;;;;;;5.66;59.44;101426.09;6180318;23;20032;-78
2024/01/29 12:03:31;;;;;;;6.75;3.78;;;;;;;5.31;59.82;101433.69;6200878;23;20023;-78
2024/01/29 12:06:22;;;;;;;8.80;4.32;;;;;;;5.44;59.74;101433.38;6201370;23;20032;-78
2024/01/29 12:09:10;;;;;;;5.80;3.22;;;;;;;5.28;58.50;101412.03;6180043;23;20043;-79
2024/01/29 12:11:55;;;;;;;8.98;5.07;;;;;;;5.33;59.80;101426.47;6201280;23;20032;-80
2024/01/29 12:14:41;;;;;;;5.38;3.22;;;;;;;5.26;58.33;101427.16;6210617;23;20457;-78
2024/01/29 12:17:27;;;;;;;13.50;4.93;;;;;;;5.34;58.53;101414.09;6193965;23;20028;-79
2024/01/29 12:20:12;;;;;;;12.90;5.90;;;;;;;5.52;58.38;101430.03;6179138;23;20061;-78
2024/01/29 12:22:57;;;;;;;10.57;5.10;;;;;;;5.59;57.88;101427.66;6217097;23;20032;-78
2024/01/29 12:25:46;;;;;;;12.05;5.72;;;;;;;5.60;57.84;101406.41;6212157;23;20024;-79
2024/01/29 12:28:32;;;;;;;14.05;6.60;;;;;;;5.79;58.30;101426.59;6208168;23;20028;-80
2024/01/29 12:31:19;;;;;;;22.00;8.85;;;;;;;5.95;57.69;101426.84;6167130;23;20031;-81
2024/01/29 12:34:06;;;;;;;12.02;5.65;;;;;;;5.73;58.34;101406.91;6182913;23;20043;-79
2024/01/29 12:36:57;;;;;;;13.57;6.43;;;;;;;5.96;57.85;101427.69;6182612;23;20314;-79
2024/01/29 12:39:43;;;;;;;6.72;3.35;;;;;;;5.71;57.57;101421.25;6183419;23;20437;-78
2024/01/29 12:42:29;;;;;;;10.68;4.65;;;;;;;5.78;57.64;101417.03;6204410;23;20028;-80
2024/01/29 12:45:17;;;;;;;14.63;8.63;;;;;;;5.98;56.90;101421.28;6202733;23;20028;-80
2024/01/29 12:48:12;;;;;;;20.70;7.53;;;;;;;6.10;56.02;101415.81;6161174;23;20322;-79